Time;durP1;ratioP1;P1;durP2;ratioP2;P2;SDS_P1;SDS_P2;PMS_P1;PMS_P2;Temp;Humidity;BMP_temperature;BMP_pressure;BME280_temperature;BME280_humidity;BME280_pressure;Samples;Min_cycle;Max_cycle;Signal;HPM_P1;HPM_P2
2021/08/01 00:00:31;;;;;;;32.83;14.60;;;;;;;;;;4353238;32;20295;-80
2021/08/01 00:02:56;;;;;;;26.90;13.45;;;;;;;;;;4345983;33;20584;-80
2021/08/01 00:05:31;;;;;;;31.77;13.68;;;;;;;;;;4345715;33;20222;-80
2021/08/01 00:07:57;;;;;;;29.45;12.60;;;;;;;;;;4359461;33;20146;-80
2021/08/01 00:10:39;;;;;;;29.90;13.18;;;;;;;;;;4345537;33;20159;-79
2021/08/01 00:13:28;;;;;;;32.17;12.13;;;;;;;;;;4346004;32;20568;-80
2021/08/01 00:15:54;;;;;;;26.98;12.02;;;;;;;;;;4359599;33;20137;-80
2021/08/01 00:18:22;;;;;;;29.20;12.13;;;;;;;;;;4345546;33;20155;-79
2021/08/01 00:20:57;;;;;;;;;;;;;;;;;;;;;
2021/08/01 00:23:31;;;;;;;27.00;11.40;;;;;;;;;;4359231;33;20158;-79
2021/08/01 00:26:08;;;;;;;25.20;11.00;;;;;;;;;;4359302;33;20196;-79
2021/08/01 00:28:39;;;;;;;26.30;10.95;;;;;;;;;;4345329;32;20166;-79
2021/08/01 00:31:05;;;;;;;24.95;11.70;;;;;;;;;;4345995;33;20159;-79
2021/08/01 00:33:39;;;;;;;22.00;10.35;;;;;;;;;;4345831;33;20250;-79
2021/08/01 00:36:13;;;;;;;28.65;10.27;;;;;;;;;;4360107;33;20132;-79
2021/08/01 00:38:51;;;;;;;23.27;11.77;;;;;;;;;;4344493;33;20205;-79
2021/08/01 00:41:36;;;;;;;26.85;9.75;;;;;;;;;;4345515;33;20143;-79
2021/08/01 00:44:14;;;;;;;;;;;;;;;;;;;;;
2021/08/01 00:46:44;;;;;;;24.90;11.48;;;;;;;;;;4359097;32;20738;-79
2021/08/01 00:49:44;;;;;;;25.37;10.90;;;;;;;;;;4346509;33;20226;-80
2021/08/01 00:53:05;;;;;;;29.95;12.05;;;;;;;;;;4358485;32;20155;-79
2021/08/01 00:55:16;;;;;;;27.62;9.98;;;;;;;;;;4358565;32;20210;-80
2021/08/01 00:57:44;;;;;;;28.02;10.43;;;;;;;;;;4358197;33;20175;-80
2021/08/01 01:01:05;;;;;;;26.30;11.27;;;;;;;;;;4358728;32;20167;-80
2021/08/01 01:03:05;;;;;;;28.65;10.98;;;;;;;;;;4416936;32;20174;-80
2021/08/01 01:05:34;;;;;;;29.42;12.02;;;;;;;;;;4407540;32;20208;-79
2021/08/01 01:08:27;;;;;;;29.37;11.05;;;;;;;;;;4406915;32;20192;-80
2021/08/01 01:10:59;;;;;;;35.25;12.40;;;;;;;;;;4407221;32;20157;-79
2021/08/01 01:13:34;;;;;;;30.88;12.02;;;;;;;;;;4421365;32;20150;-80
2021/08/01 01:16:00;;;;;;;33.03;12.80;;;;;;;;;;4407404;32;20167;-80
2021/08/01 01:18:28;;;;;;;29.83;11.77;;;;;;;;;;4407262;32;20157;-80
2021/08/01 01:22:00;;;;;;;28.80;12.35;;;;;;;;;;4406698;32;20169;-80
2021/08/01 01:24:03;;;;;;;32.42;12.45;;;;;;;;;;4413577;32;20186;-80
2021/08/01 01:26:37;;;;;;;37.90;14.52;;;;;;;;;;4406989;32;20184;-80
2021/08/01 01:38:55;;;;;;;39.50;17.45;;;;;;;;;;4329005;33;20253;-79
2021/08/01 01:41:53;;;;;;;36.40;16.85;;;;;;;;;;4343248;33;20199;-80
2021/08/01 01:44:35;;;;;;;42.25;17.37;;;;;;;;;;4340826;33;20178;-80
2021/08/01 01:47:00;;;;;;;39.65;17.92;;;;;;;;;;4343168;33;20197;-79
2021/08/01 01:49:31;;;;;;;41.20;18.00;;;;;;;;;;4360791;32;20186;-78
2021/08/01 01:58:31;;;;;;;40.40;16.75;;;;;;;;;;4343557;33;20189;-79
2021/08/01 02:00:52;;;;;;;35.05;16.15;;;;;;;;;;4341911;33;20555;-79
2021/08/01 02:16:00;;;;;;;32.72;15.05;;;;;;;;;;4342711;33;20177;-79
2021/08/01 02:18:57;;;;;;;;;;;;;;;;;;;;;
2021/08/01 02:24:11;;;;;;;25.80;14.48;;;;;;;;;;4399691;32;20234;-79
2021/08/01 02:26:51;;;;;;;32.63;14.20;;;;;;;;;;4404893;32;20142;-79
2021/08/01 02:29:17;;;;;;;28.62;13.98;;;;;;;;;;4402550;32;20235;-77
2021/08/01 02:31:57;;;;;;;29.85;14.90;;;;;;;;;;4404877;32;20194;-78
2021/08/01 02:34:24;;;;;;;28.38;13.65;;;;;;;;;;4404843;32;20152;-78
2021/08/01 02:36:52;;;;;;;26.20;13.05;;;;;;;;;;4391015;32;20162;-78
2021/08/01 02:39:34;;;;;;;27.58;13.25;;;;;;;;;;4398453;32;20230;-78
2021/08/01 02:42:00;;;;;;;27.73;12.52;;;;;;;;;;4406113;32;20165;-78
2021/08/01 02:44:27;;;;;;;28.23;12.15;;;;;;;;;;4406581;32;20646;-78
2021/08/01 02:46:53;;;;;;;27.75;11.75;;;;;;;;;;4405721;32;20601;-78
2021/08/01 02:49:20;;;;;;;28.90;12.15;;;;;;;;;;4360419;32;20167;-78
2021/08/01 02:51:49;;;;;;;29.17;13.10;;;;;;;;;;4356755;32;20164;-78
2021/08/01 02:54:26;;;;;;;28.67;12.55;;;;;;;;;;4356303;32;20178;-78
2021/08/01 02:56:58;;;;;;;26.10;11.07;;;;;;;;;;4356672;32;20159;-78
2021/08/01 02:59:24;;;;;;;33.13;12.23;;;;;;;;;;4356112;33;20159;-78
2021/08/01 03:01:54;;;;;;;28.45;13.73;;;;;;;;;;4357475;33;20272;-78
2021/08/01 03:04:30;;;;;;;;;;;;;;;;;;;;;
2021/08/01 03:06:57;;;;;;;35.58;13.00;;;;;;;;;;4360514;33;20560;-78
2021/08/01 03:09:33;;;;;;;27.87;13.13;;;;;;;;;;4358985;32;20163;-79
2021/08/01 03:12:12;;;;;;;29.55;13.05;;;;;;;;;;4358988;32;20245;-79
2021/08/01 03:14:45;;;;;;;24.92;12.15;;;;;;;;;;4358584;32;20216;-78
2021/08/01 03:17:10;;;;;;;31.05;12.23;;;;;;;;;;4358950;32;20284;-78
2021/08/01 03:19:48;;;;;;;27.73;11.57;;;;;;;;;;4358553;32;20174;-78
2021/08/01 03:22:16;;;;;;;26.83;11.82;;;;;;;;;;4358404;32;20151;-78
2021/08/01 03:24:42;;;;;;;24.00;12.10;;;;;;;;;;4358447;33;20236;-78
2021/08/01 03:27:07;;;;;;;29.27;12.55;;;;;;;;;;4360058;32;20127;-78
2021/08/01 03:29:32;;;;;;;24.40;12.02;;;;;;;;;;4345958;32;20158;-78
2021/08/01 03:32:07;;;;;;;31.23;13.23;;;;;;;;;;4358394;32;20159;-78
2021/08/01 03:34:32;;;;;;;33.30;13.50;;;;;;;;;;4358767;33;20148;-78
2021/08/01 03:36:58;;;;;;;34.10;15.05;;;;;;;;;;4358353;32;20163;-78
2021/08/01 03:39:23;;;;;;;29.05;13.25;;;;;;;;;;4358362;33;20177;-79
2021/08/01 03:41:54;;;;;;;27.67;14.65;;;;;;;;;;4358498;32;20255;-79
2021/08/01 03:44:19;;;;;;;34.92;14.65;;;;;;;;;;4358288;32;20214;-78
2021/08/01 03:46:44;;;;;;;28.65;15.30;;;;;;;;;;4359111;32;20197;-79
2021/08/01 03:49:55;;;;;;;41.10;17.33;;;;;;;;;;4357339;32;20243;-79
2021/08/01 03:52:02;;;;;;;35.83;15.85;;;;;;;;;;4364702;32;20622;-78
2021/08/01 03:54:28;;;;;;;35.25;15.48;;;;;;;;;;4347014;32;20156;-78
2021/08/01 03:57:13;;;;;;;38.20;16.67;;;;;;;;;;4345780;32;20155;-78
2021/08/01 03:59:51;;;;;;;38.10;16.02;;;;;;;;;;4345937;33;20170;-78
2021/08/01 04:02:17;;;;;;;38.83;17.65;;;;;;;;;;4354222;33;20504;-78
2021/08/01 04:04:44;;;;;;;40.50;16.92;;;;;;;;;;4358518;33;20173;-79
2021/08/01 04:07:09;;;;;;;38.83;17.83;;;;;;;;;;4359578;32;20154;-78
2021/08/01 04:09:34;;;;;;;40.25;17.12;;;;;;;;;;4359267;32;20131;-78
2021/08/01 04:12:02;;;;;;;43.87;18.02;;;;;;;;;;4358051;32;20226;-77
2021/08/01 04:14:31;;;;;;;41.75;17.50;;;;;;;;;;4358130;32;20164;-78
2021/08/01 04:16:56;;;;;;;46.33;17.92;;;;;;;;;;4358035;33;20216;-78
2021/08/01 04:19:32;;;;;;;;;;;;;;;;;;;;;
2021/08/01 04:21:57;;;;;;;48.55;19.75;;;;;;;;;;4359354;33;20177;-79
2021/08/01 04:26:57;;;;;;;59.00;20.17;;;;;;;;;;4358856;33;20184;-79
2021/08/01 04:29:23;;;;;;;54.25;22.15;;;;;;;;;;4345714;32;20175;-80
2021/08/01 04:31:48;;;;;;;56.70;23.77;;;;;;;;;;4345372;33;20592;-80
2021/08/01 04:34:16;;;;;;;51.88;22.10;;;;;;;;;;4345524;33;20167;-79
2021/08/01 04:36:44;;;;;;;57.22;22.95;;;;;;;;;;4345236;33;20233;-78
2021/08/01 04:39:10;;;;;;;46.03;22.10;;;;;;;;;;4345387;32;20514;-78
2021/08/01 04:41:35;;;;;;;50.90;23.10;;;;;;;;;;4345277;32;20182;-78
2021/08/01 04:44:00;;;;;;;64.45;26.33;;;;;;;;;;4345917;33;20269;-79
2021/08/01 04:46:26;;;;;;;61.67;26.05;;;;;;;;;;4345145;33;20183;-79
2021/08/01 04:48:54;;;;;;;57.10;26.67;;;;;;;;;;4339030;33;20175;-78
2021/08/01 04:51:20;;;;;;;62.67;26.77;;;;;;;;;;4357254;32;20525;-78
2021/08/01 04:53:48;;;;;;;57.70;27.35;;;;;;;;;;4357653;32;20155;-79
2021/08/01 04:56:16;;;;;;;55.92;26.15;;;;;;;;;;4359288;32;20151;-78
2021/08/01 04:59:02;;;;;;;66.00;29.77;;;;;;;;;;4357997;32;20229;-79
2021/08/01 05:01:28;;;;;;;63.13;25.37;;;;;;;;;;4358892;32;20139;-74
2021/08/01 05:03:56;;;;;;;59.85;27.80;;;;;;;;;;4357651;32;20209;-78
2021/08/01 05:06:21;;;;;;;58.17;25.40;;;;;;;;;;4357562;32;20257;-78
2021/08/01 05:08:49;;;;;;;55.22;25.80;;;;;;;;;;4357554;32;20167;-79
2021/08/01 05:11:17;;;;;;;61.83;24.67;;;;;;;;;;4357460;32;20171;-78
2021/08/01 05:13:45;;;;;;;50.22;25.52;;;;;;;;;;4358658;33;20600;-78
2021/08/01 05:16:16;;;;;;;60.88;25.40;;;;;;;;;;4357644;33;20207;-78
2021/08/01 05:18:41;;;;;;;57.40;24.15;;;;;;;;;;4344942;32;20169;-78
2021/08/01 05:21:07;;;;;;;51.97;24.80;;;;;;;;;;4357168;32;20167;-78
2021/08/01 05:23:32;;;;;;;59.50;26.92;;;;;;;;;;4351383;32;20167;-79
2021/08/01 05:25:57;;;;;;;56.58;25.45;;;;;;;;;;4344837;32;20194;-80
2021/08/01 05:28:23;;;;;;;54.55;26.12;;;;;;;;;;4344752;33;20159;-79
2021/08/01 05:30:51;;;;;;;62.00;27.62;;;;;;;;;;4345171;33;20159;-78
2021/08/01 05:33:16;;;;;;;57.95;27.45;;;;;;;;;;4332831;33;20163;-80
2021/08/01 05:35:41;;;;;;;57.22;26.58;;;;;;;;;;4345136;33;20212;-76
2021/08/01 05:38:07;;;;;;;64.30;29.80;;;;;;;;;;4358125;33;20143;-79
2021/08/01 05:40:32;;;;;;;64.40;28.73;;;;;;;;;;4358519;33;20139;-79
2021/08/01 05:42:59;;;;;;;70.12;28.90;;;;;;;;;;4358127;33;20139;-78
2021/08/01 05:45:25;;;;;;;56.33;28.20;;;;;;;;;;4345597;33;20159;-77
2021/08/01 05:47:50;;;;;;;64.80;28.20;;;;;;;;;;4344495;32;20689;-78
2021/08/01 05:50:16;;;;;;;61.17;28.40;;;;;;;;;;4357172;33;20236;-79
2021/08/01 05:52:44;;;;;;;65.53;30.62;;;;;;;;;;4356726;33;20194;-78
2021/08/01 05:55:21;;;;;;;63.13;30.12;;;;;;;;;;4332424;33;20224;-78
2021/08/01 05:57:50;;;;;;;56.28;28.73;;;;;;;;;;4345010;33;20167;-79
2021/08/01 06:00:15;;;;;;;59.47;28.38;;;;;;;;;;4344857;32;20159;-78
2021/08/01 06:02:41;;;;;;;62.72;30.50;;;;;;;;;;4344192;33;20218;-80
2021/08/01 06:05:06;;;;;;;55.12;28.55;;;;;;;;;;4345387;32;20171;-80
2021/08/01 06:07:34;;;;;;;62.45;28.23;;;;;;;;;;4345238;32;20183;-80
2021/08/01 06:10:01;;;;;;;61.28;28.85;;;;;;;;;;4344861;33;20160;-81
2021/08/01 06:12:29;;;;;;;60.95;29.05;;;;;;;;;;4358260;33;20157;-78
2021/08/01 06:14:55;;;;;;;59.65;28.87;;;;;;;;;;4344773;33;20190;-78
2021/08/01 06:17:21;;;;;;;58.45;28.80;;;;;;;;;;4344191;33;20540;-79
2021/08/01 06:19:46;;;;;;;51.33;26.65;;;;;;;;;;4344118;33;20186;-79
2021/08/01 06:22:15;;;;;;;54.72;26.75;;;;;;;;;;4357334;33;20177;-78
2021/08/01 06:24:40;;;;;;;48.25;26.00;;;;;;;;;;4344772;33;20167;-78
2021/08/01 06:27:11;;;;;;;53.85;27.27;;;;;;;;;;4344326;33;20259;-79
2021/08/01 06:29:36;;;;;;;53.97;26.45;;;;;;;;;;4344127;32;20194;-79
2021/08/01 06:32:01;;;;;;;53.05;24.63;;;;;;;;;;4344110;33;20167;-79
2021/08/01 06:34:28;;;;;;;52.62;26.85;;;;;;;;;;4344092;32;20242;-79
2021/08/01 06:36:56;;;;;;;52.88;25.02;;;;;;;;;;4359213;32;20204;-79
2021/08/01 06:39:35;;;;;;;51.90;26.52;;;;;;;;;;4346708;32;20243;-79
2021/08/01 06:42:07;;;;;;;55.63;26.33;;;;;;;;;;4360632;33;20176;-78
2021/08/01 06:44:32;;;;;;;51.47;26.12;;;;;;;;;;4347259;33;20162;-80
2021/08/01 06:47:01;;;;;;;49.17;25.33;;;;;;;;;;4347070;33;20200;-78
2021/08/01 06:49:26;;;;;;;55.58;27.10;;;;;;;;;;4360035;32;20159;-78
2021/08/01 06:51:51;;;;;;;52.30;26.02;;;;;;;;;;4360666;32;20149;-79
2021/08/01 06:54:22;;;;;;;46.17;24.73;;;;;;;;;;4348654;32;20159;-77
2021/08/01 06:56:48;;;;;;;54.28;25.35;;;;;;;;;;4360458;33;20154;-78
2021/08/01 06:59:13;;;;;;;48.03;23.35;;;;;;;;;;4347453;32;20237;-79
2021/08/01 07:02:04;;;;;;;44.80;26.13;;;;;;;;;;4360331;33;20163;-79
2021/08/01 07:04:30;;;;;;;45.65;22.67;;;;;;;;;;4359384;32;20264;-78
2021/08/01 07:06:55;;;;;;;40.38;21.87;;;;;;;;;;4346320;33;20151;-80
2021/08/01 07:09:25;;;;;;;37.10;20.62;;;;;;;;;;4346034;33;20195;-78
2021/08/01 07:11:53;;;;;;;39.00;19.50;;;;;;;;;;4346517;33;20190;-78
2021/08/01 07:14:19;;;;;;;31.62;18.33;;;;;;;;;;4334288;33;20171;-78
2021/08/01 07:16:44;;;;;;;31.77;17.48;;;;;;;;;;4346151;33;20622;-78
2021/08/01 07:19:10;;;;;;;25.85;15.23;;;;;;;;;;4359887;33;20154;-79
2021/08/01 07:21:36;;;;;;;24.92;13.27;;;;;;;;;;4346559;32;20155;-78
2021/08/01 07:26:57;;;;;;;16.08;10.52;;;;;;;;;;4331640;32;20186;-78
2021/08/01 07:29:24;;;;;;;20.50;12.10;;;;;;;;;;4358890;33;20580;-77
2021/08/01 07:31:52;;;;;;;18.45;11.38;;;;;;;;;;4358442;32;20159;-78
2021/08/01 07:34:18;;;;;;;19.00;12.30;;;;;;;;;;4359185;32;20317;-79
2021/08/01 07:36:48;;;;;;;21.48;12.68;;;;;;;;;;4360345;33;20139;-78
2021/08/01 07:39:58;;;;;;;22.92;13.43;;;;;;;;;;4359904;33;20161;-78
2021/08/01 07:42:29;;;;;;;23.25;13.05;;;;;;;;;;4345950;32;20163;-78
2021/08/01 07:45:02;;;;;;;19.02;12.95;;;;;;;;;;4346598;32;20159;-78
2021/08/01 07:47:35;;;;;;;25.10;13.40;;;;;;;;;;4346086;33;20169;-78
2021/08/01 07:50:21;;;;;;;20.83;13.32;;;;;;;;;;4349068;33;20167;-78
2021/08/01 07:52:56;;;;;;;22.33;14.15;;;;;;;;;;4358526;32;20166;-78
2021/08/01 07:58:35;;;;;;;21.48;14.10;;;;;;;;;;4354144;32;20171;-80
2021/08/01 08:01:20;;;;;;;27.25;16.35;;;;;;;;;;4359713;32;20186;-80
2021/08/01 08:03:51;;;;;;;25.75;16.75;;;;;;;;;;4352835;32;20189;-80
2021/08/01 08:06:26;;;;;;;17.05;11.95;;;;;;;;;;4346034;33;20155;-79
2021/08/01 08:09:38;;;;;;;16.27;10.65;;;;;;;;;;4335664;32;20612;-79
2021/08/01 08:12:14;;;;;;;16.75;11.90;;;;;;;;;;4355506;32;20237;-79
2021/08/01 08:14:45;;;;;;;17.75;12.80;;;;;;;;;;4346140;33;20182;-78
2021/08/01 08:17:43;;;;;;;17.42;13.15;;;;;;;;;;4345706;33;20337;-78
2021/08/01 08:27:18;;;;;;;12.68;9.88;;;;;;;;;;4389050;32;20196;-78
2021/08/01 08:29:54;;;;;;;13.27;9.15;;;;;;;;;;4359147;32;20185;-78
2021/08/01 08:32:30;;;;;;;9.73;7.32;;;;;;;;;;4298299;33;20171;-78
2021/08/01 08:34:56;;;;;;;7.53;5.80;;;;;;;;;;4345429;32;20178;-78
2021/08/01 08:37:40;;;;;;;7.43;6.20;;;;;;;;;;4357411;32;20227;-78
2021/08/01 08:40:30;;;;;;;11.60;6.72;;;;;;;;;;4359136;32;20143;-78
2021/08/01 08:49:32;;;;;;;;;;;;;;;;;;;;;
2021/08/01 09:10:19;;;;;;;5.45;4.78;;;;;;;;;;4286030;33;20583;-78
2021/08/01 09:12:47;;;;;;;6.32;4.35;;;;;;;;;;4323720;33;20155;-77
2021/08/01 09:15:38;;;;;;;4.43;3.40;;;;;;;;;;4299422;33;20294;-78
2021/08/01 09:18:15;;;;;;;5.82;3.28;;;;;;;;;;4290259;33;20276;-78
2021/08/01 09:21:08;;;;;;;5.62;2.80;;;;;;;;;;4341779;32;20578;-77
2021/08/01 09:23:58;;;;;;;3.87;3.10;;;;;;;;;;4390512;32;20177;-77
2021/08/01 09:26:24;;;;;;;3.80;2.92;;;;;;;;;;4403540;32;20126;-77
2021/08/01 09:29:03;;;;;;;4.60;3.15;;;;;;;;;;4390295;32;20262;-77
2021/08/01 09:31:28;;;;;;;6.12;3.87;;;;;;;;;;4403123;32;20180;-77
2021/08/01 09:33:59;;;;;;;5.72;4.03;;;;;;;;;;4391252;32;20603;-77
2021/08/01 09:36:28;;;;;;;7.07;4.68;;;;;;;;;;4390691;32;20217;-77
2021/08/01 09:39:00;;;;;;;6.32;5.07;;;;;;;;;;4390923;32;20226;-77
2021/08/01 09:41:31;;;;;;;6.70;4.60;;;;;;;;;;4390541;32;20225;-78
2021/08/01 09:44:07;;;;;;;;;;;;;;;;;;;;;
2021/08/01 09:46:40;;;;;;;7.00;6.00;;;;;;;;;;4368138;32;20162;-77
2021/08/01 09:49:13;;;;;;;8.23;6.10;;;;;;;;;;4342477;32;20209;-80
2021/08/01 09:51:39;;;;;;;8.13;6.00;;;;;;;;;;4316664;32;20232;-78
2021/08/01 09:54:15;;;;;;;9.35;5.40;;;;;;;;;;4321389;32;20533;-78
2021/08/01 09:57:08;;;;;;;5.95;5.07;;;;;;;;;;4329538;33;20179;-77
2021/08/01 09:59:45;;;;;;;7.12;5.78;;;;;;;;;;4344303;33;20174;-78
2021/08/01 10:02:20;;;;;;;8.15;5.15;;;;;;;;;;4357916;33;20182;-79
2021/08/01 10:04:59;;;;;;;9.00;6.00;;;;;;;;;;4341563;33;20170;-78
2021/08/01 10:13:44;;;;;;;10.00;8.20;;;;;;;;;;4361644;32;20142;-77
2021/08/01 10:16:28;;;;;;;;;;;;;;;;;;;;;
2021/08/01 10:19:02;;;;;;;12.18;10.50;;;;;;;;;;4345895;33;20492;-77
2021/08/01 10:21:37;;;;;;;;;;;;;;;;;;;;;
2021/08/01 10:24:03;;;;;;;13.80;10.98;;;;;;;;;;4345476;32;20162;-77
2021/08/01 10:30:27;;;;;;;9.55;8.18;;;;;;;;;;4356802;32;20675;-77
2021/08/01 10:32:53;;;;;;;12.75;9.40;;;;;;;;;;4331846;33;20155;-77
2021/08/01 10:35:52;;;;;;;;;;;;;;;;;;;;;
2021/08/01 10:41:53;;;;;;;9.38;7.53;;;;;;;;;;4358989;32;20288;-77
2021/08/01 10:47:42;;;;;;;5.75;5.22;;;;;;;;;;4284842;33;20200;-77
2021/08/01 10:50:32;;;;;;;6.65;4.80;;;;;;;;;;4285177;32;20173;-77
2021/08/01 10:53:25;;;;;;;5.07;3.80;;;;;;;;;;4266367;33;20161;-76
2021/08/01 10:56:20;;;;;;;5.28;4.03;;;;;;;;;;4285449;33;20609;-77
2021/08/01 10:59:09;;;;;;;5.93;3.53;;;;;;;;;;4284988;33;20471;-77
2021/08/01 11:02:16;;;;;;;3.75;3.35;;;;;;;;;;4284674;33;20656;-77
2021/08/01 11:04:55;;;;;;;3.83;3.25;;;;;;;;;;4256098;33;20212;-78
2021/08/01 11:07:52;;;;;;;7.15;3.55;;;;;;;;;;4256687;33;20238;-78
2021/08/01 11:10:41;;;;;;;6.57;4.40;;;;;;;;;;4283889;33;20203;-78
2021/08/01 11:13:41;;;;;;;;;;;;;;;;;;;;;
2021/08/01 11:16:22;;;;;;;;;;;;;;;;;;;;;
2021/08/01 11:18:48;;;;;;;4.97;3.53;;;;;;;;;;4285021;33;20566;-82
2021/08/01 11:21:38;;;;;;;4.65;3.47;;;;;;;;;;4295653;33;20194;-83
2021/08/01 11:31:01;;;;;;;2.90;2.05;;;;;;;;;;4359611;32;20544;-82
2021/08/01 11:40:00;;;;;;;3.37;2.20;;;;;;;;;;4346011;32;20591;-82
2021/08/01 12:16:20;;;;;;;4.57;2.50;;;;;;;;;;4390008;32;20191;-86
2021/08/01 12:19:22;;;;;;;3.37;2.40;;;;;;;;;;4377493;32;20166;-85
2021/08/01 12:22:26;;;;;;;3.72;2.40;;;;;;;;;;4333195;32;20201;-85
2021/08/01 12:24:56;;;;;;;3.28;2.40;;;;;;;;;;4272482;33;20534;-84
2021/08/01 12:31:02;;;;;;;;;;;;;;;;;;;;;
2021/08/01 12:36:30;;;;;;;3.58;2.70;;;;;;;;;;4270031;33;20604;-86
2021/08/01 12:39:05;;;;;;;2.87;2.20;;;;;;;;;;4255732;33;20172;-86
2021/08/01 12:51:41;;;;;;;3.17;2.55;;;;;;;;;;4269236;33;20227;-85
2021/08/01 12:56:36;;;;;;;4.47;2.50;;;;;;;;;;4272552;33;20195;-86
2021/08/01 12:59:21;;;;;;;;;;;;;;;;;;;;;
2021/08/01 13:11:58;;;;;;;2.75;2.10;;;;;;;;;;4329791;33;20150;-85
2021/08/01 13:30:24;;;;;;;3.47;1.60;;;;;;;;;;4283525;33;20267;-84
2021/08/01 13:33:36;;;;;;;2.95;1.60;;;;;;;;;;4332260;32;20633;-83
2021/08/01 13:36:24;;;;;;;2.65;1.50;;;;;;;;;;4352612;32;20174;-84
2021/08/01 13:45:28;;;;;;;1.73;1.58;;;;;;;;;;4328517;33;20255;-84
2021/08/01 13:51:14;;;;;;;2.95;1.30;;;;;;;;;;4341647;32;20151;-84
2021/08/01 13:57:26;;;;;;;;;;;;;;;;;;;;;
2021/08/01 14:03:01;;;;;;;2.80;1.60;;;;;;;;;;4342678;32;20219;-84
2021/08/01 14:17:30;;;;;;;2.45;1.65;;;;;;;;;;4338278;33;20152;-83
2021/08/01 14:20:14;;;;;;;2.05;1.60;;;;;;;;;;4329418;33;20197;-83
2021/08/01 14:26:47;;;;;;;2.15;1.33;;;;;;;;;;4387386;32;20162;-84
2021/08/01 14:33:03;;;;;;;;;;;;;;;;;;;;;
2021/08/01 14:36:16;;;;;;;;;;;;;;;;;;;;;
2021/08/01 14:39:25;;;;;;;;;;;;;;;;;;;;;
2021/08/01 14:42:20;;;;;;;;;;;;;;;;;;;;;
2021/08/01 14:48:28;;;;;;;2.72;1.50;;;;;;;;;;4342364;33;20581;-85
2021/08/01 14:54:31;;;;;;;2.05;1.37;;;;;;;;;;4343204;33;20150;-83
2021/08/01 15:00:06;;;;;;;2.15;1.55;;;;;;;;;;4345868;33;20214;-83
2021/08/01 15:09:05;;;;;;;;;;;;;;;;;;;;;
2021/08/01 15:24:42;;;;;;;;;;;;;;;;;;;;;
2021/08/01 15:30:42;;;;;;;3.20;1.40;;;;;;;;;;4301229;33;20208;-83
2021/08/01 15:36:16;;;;;;;3.47;1.70;;;;;;;;;;4342164;33;20194;-83
2021/08/01 15:38:47;;;;;;;2.67;1.30;;;;;;;;;;4329179;32;20265;-84
2021/08/01 15:41:22;;;;;;;2.10;1.27;;;;;;;;;;4331501;33;20190;-84
2021/08/01 15:43:58;;;;;;;4.30;1.60;;;;;;;;;;4331422;33;20268;-83
2021/08/01 15:47:00;;;;;;;4.10;2.22;;;;;;;;;;4330034;33;20178;-83
2021/08/01 15:49:40;;;;;;;3.78;1.77;;;;;;;;;;4272737;33;20175;-84
2021/08/01 15:52:09;;;;;;;5.72;1.60;;;;;;;;;;4320862;32;20218;-84
2021/08/01 15:54:43;;;;;;;3.80;1.67;;;;;;;;;;4330907;33;20178;-83
2021/08/01 15:57:57;;;;;;;3.92;1.73;;;;;;;;;;4331145;33;20156;-83
2021/08/01 16:00:46;;;;;;;3.75;1.42;;;;;;;;;;4330236;32;20233;-82
2021/08/01 16:03:49;;;;;;;;;;;;;;;;;;;;;
2021/08/01 16:06:54;;;;;;;3.72;1.30;;;;;;;;;;4358981;33;20638;-84
2021/08/01 16:18:25;;;;;;;4.15;1.50;;;;;;;;;;4286351;33;20220;-82
2021/08/01 16:20:55;;;;;;;4.03;1.50;;;;;;;;;;4326364;33;20630;-82
2021/08/01 16:26:39;;;;;;;5.55;1.60;;;;;;;;;;4302264;33;20185;-82
2021/08/01 16:29:24;;;;;;;5.57;1.60;;;;;;;;;;4316894;33;20496;-82
2021/08/01 16:35:22;;;;;;;3.78;1.67;;;;;;;;;;4329760;33;20678;-82
2021/08/01 16:38:03;;;;;;;3.37;1.40;;;;;;;;;;4340305;33;20583;-83
2021/08/01 16:47:17;;;;;;;;;;;;;;;;;;;;;
2021/08/01 16:53:35;;;;;;;;;;;;;;;;;;;;;
2021/08/01 17:07:54;;;;;;;6.00;2.10;;;;;;;;;;4329384;33;20151;-83
2021/08/01 17:10:51;;;;;;;2.30;1.30;;;;;;;;;;4316808;33;20167;-81
2021/08/01 17:20:17;;;;;;;2.80;1.45;;;;;;;;;;4228622;33;20231;-82
2021/08/01 17:45:03;;;;;;;;;;;;;;;;;;;;;
2021/08/01 17:50:37;;;;;;;5.30;1.80;;;;;;;;;;4231750;33;20152;-82
2021/08/01 17:53:22;;;;;;;9.15;2.08;;;;;;;;;;4242311;33;20272;-82
2021/08/01 17:56:39;;;;;;;;;;;;;;;;;;;;;
2021/08/01 18:02:34;;;;;;;5.37;1.83;;;;;;;;;;4227075;34;20188;-81
2021/08/01 18:05:02;;;;;;;7.10;2.33;;;;;;;;;;4227030;33;20181;-82
2021/08/01 18:08:05;;;;;;;4.05;1.83;;;;;;;;;;4282989;33;20180;-82
2021/08/01 18:10:54;;;;;;;2.80;1.40;;;;;;;;;;4304895;33;20187;-82
2021/08/01 18:13:56;;;;;;;4.10;1.50;;;;;;;;;;4285601;33;20263;-82
2021/08/01 18:16:18;;;;;;;4.72;2.00;;;;;;;;;;4298567;33;20573;-80
2021/08/01 18:18:55;;;;;;;4.75;1.73;;;;;;;;;;4401722;32;20189;-81
2021/08/01 18:21:49;;;;;;;5.30;1.62;;;;;;;;;;4326917;32;20151;-81
2021/08/01 18:24:50;;;;;;;;;;;;;;;;;;;;;
2021/08/01 18:27:42;;;;;;;6.45;1.40;;;;;;;;;;4316582;33;20168;-82
2021/08/01 18:30:34;;;;;;;;;;;;;;;;;;;;;
2021/08/01 18:32:59;;;;;;;3.78;1.55;;;;;;;;;;4328048;33;20139;-79
2021/08/01 18:35:50;;;;;;;3.53;1.80;;;;;;;;;;4326915;33;20170;-81
2021/08/01 18:38:16;;;;;;;3.08;1.33;;;;;;;;;;4317020;32;20148;-81
2021/08/01 18:40:57;;;;;;;2.75;1.17;;;;;;;;;;4330326;33;20207;-80
2021/08/01 18:43:53;;;;;;;;;;;;;;;;;;;;;
2021/08/01 18:46:37;;;;;;;5.37;1.70;;;;;;;;;;4336668;33;20182;-81
2021/08/01 18:49:32;;;;;;;5.03;1.60;;;;;;;;;;4328540;33;20144;-80
2021/08/01 18:52:33;;;;;;;4.68;1.80;;;;;;;;;;4322086;32;20220;-82
2021/08/01 18:55:44;;;;;;;;;;;;;;;;;;;;;
2021/08/01 18:58:44;;;;;;;4.60;1.30;;;;;;;;;;4354444;32;20152;-80
2021/08/01 19:01:11;;;;;;;5.32;1.50;;;;;;;;;;4354068;32;20238;-81
2021/08/01 19:03:41;;;;;;;2.37;1.30;;;;;;;;;;4334045;33;20179;-81
2021/08/01 19:06:09;;;;;;;5.97;1.55;;;;;;;;;;4343825;33;20151;-80
2021/08/01 19:08:35;;;;;;;5.75;1.55;;;;;;;;;;4343684;33;20152;-82
2021/08/01 19:11:01;;;;;;;5.80;1.30;;;;;;;;;;4346514;33;20155;-81
2021/08/01 19:13:35;;;;;;;4.97;1.70;;;;;;;;;;4346012;32;20226;-81
2021/08/01 19:16:40;;;;;;;3.95;1.75;;;;;;;;;;4333889;32;20166;-81
2021/08/01 19:19:16;;;;;;;4.90;1.92;;;;;;;;;;4358921;33;20178;-84
2021/08/01 19:22:16;;;;;;;;;;;;;;;;;;;;;
2021/08/01 19:24:52;;;;;;;6.30;1.62;;;;;;;;;;4360156;33;20159;-80
2021/08/01 19:27:38;;;;;;;;;;;;;;;;;;;;;
2021/08/01 19:30:03;;;;;;;4.75;1.75;;;;;;;;;;4360112;33;20545;-81
2021/08/01 19:32:48;;;;;;;3.87;1.80;;;;;;;;;;4346077;32;20200;-81
2021/08/01 19:35:18;;;;;;;6.22;1.50;;;;;;;;;;4345931;32;20155;-81
2021/08/01 19:37:46;;;;;;;3.62;1.62;;;;;;;;;;4346869;32;20193;-80
2021/08/01 19:40:21;;;;;;;4.87;1.95;;;;;;;;;;4345965;32;20257;-80
2021/08/01 19:42:47;;;;;;;4.43;1.75;;;;;;;;;;4344946;32;20155;-80
2021/08/01 19:45:19;;;;;;;9.20;1.95;;;;;;;;;;4345810;32;20201;-81
2021/08/01 19:47:52;;;;;;;6.45;1.95;;;;;;;;;;4345830;32;20151;-79
2021/08/01 19:50:17;;;;;;;5.22;1.80;;;;;;;;;;4334715;32;20202;-79
2021/08/01 19:52:45;;;;;;;3.28;1.80;;;;;;;;;;4346425;32;20163;-80
2021/08/01 19:55:39;;;;;;;5.70;1.85;;;;;;;;;;4345516;32;20151;-80
2021/08/01 19:58:04;;;;;;;4.78;2.15;;;;;;;;;;4345807;32;20185;-79
2021/08/01 20:00:32;;;;;;;4.00;2.00;;;;;;;;;;4346229;32;20556;-79
2021/08/01 20:02:58;;;;;;;4.70;1.70;;;;;;;;;;4344722;32;20211;-80
2021/08/01 20:05:24;;;;;;;6.62;2.00;;;;;;;;;;4346231;32;20175;-80
2021/08/01 20:07:51;;;;;;;9.50;2.55;;;;;;;;;;4345802;32;20208;-79
2021/08/01 20:10:22;;;;;;;8.48;1.90;;;;;;;;;;4345692;33;20147;-78
2021/08/01 20:12:48;;;;;;;3.53;1.85;;;;;;;;;;4345781;33;20218;-78
2021/08/01 20:15:13;;;;;;;5.20;2.05;;;;;;;;;;4345432;33;20579;-78
2021/08/01 20:17:48;;;;;;;5.30;1.90;;;;;;;;;;4345525;32;20155;-80
2021/08/01 20:20:28;;;;;;;6.70;2.10;;;;;;;;;;4346038;32;20154;-80
2021/08/01 20:22:56;;;;;;;7.30;2.10;;;;;;;;;;4345632;32;20154;-79
2021/08/01 20:25:48;;;;;;;5.55;1.67;;;;;;;;;;4345768;32;20181;-79
2021/08/01 20:28:14;;;;;;;4.22;1.95;;;;;;;;;;4344157;33;20181;-79
2021/08/01 20:30:45;;;;;;;5.45;1.80;;;;;;;;;;4345474;32;20497;-80
2021/08/01 20:33:11;;;;;;;7.47;2.05;;;;;;;;;;4345321;32;20175;-79
2021/08/01 20:35:36;;;;;;;6.00;1.95;;;;;;;;;;4345618;32;20174;-79
2021/08/01 20:38:04;;;;;;;7.35;2.17;;;;;;;;;;4345301;32;20206;-79
2021/08/01 20:40:50;;;;;;;4.30;2.12;;;;;;;;;;4345074;32;20234;-80
2021/08/01 20:43:21;;;;;;;9.32;2.50;;;;;;;;;;4343734;32;20205;-80
2021/08/01 20:45:49;;;;;;;7.28;2.20;;;;;;;;;;4342367;32;20164;-80
2021/08/01 20:48:22;;;;;;;7.72;1.90;;;;;;;;;;4345039;32;20317;-79
2021/08/01 20:50:47;;;;;;;6.95;2.40;;;;;;;;;;4342906;33;20209;-81
2021/08/01 20:53:14;;;;;;;5.55;1.75;;;;;;;;;;4344009;32;20159;-80
2021/08/01 20:55:54;;;;;;;5.00;1.95;;;;;;;;;;4342661;32;20262;-79
2021/08/01 20:58:22;;;;;;;4.50;2.00;;;;;;;;;;4343260;32;20231;-79
2021/08/01 21:01:04;;;;;;;7.25;2.00;;;;;;;;;;4343334;32;20245;-79
2021/08/01 21:03:29;;;;;;;5.93;1.90;;;;;;;;;;4343977;33;20179;-79
2021/08/01 21:05:57;;;;;;;7.40;2.17;;;;;;;;;;4346841;33;20517;-80
2021/08/01 21:08:23;;;;;;;5.35;1.95;;;;;;;;;;4346470;33;20222;-80
2021/08/01 21:10:55;;;;;;;6.80;2.20;;;;;;;;;;4350160;33;20160;-80
2021/08/01 21:13:29;;;;;;;3.83;1.55;;;;;;;;;;4362575;32;20166;-79